Aviation Digital Data Service (ADDS)

Output produced by METARs form (1713 UTC 20 January 2019)
found at http://www.aviationweather.gov/metar/data/
 
TAF HLLB 201100Z 2012/2112 24015KT 8000 SCT025 BKN080 
     TEMPO 2012/2018 5000 SHRA FEW020TCU BKN025 BKN080 
     BECMG 2021/2023 VRB02KT 
     BECMG 2108/2110 23010KT
       
TAF HLTD 201100Z 2012/2112 24010KT 8000 NSC 
     BECMG 2021/2023 VRB02KT
       
TAF HLGT 201100Z 2012/2112 36010KT CAVOK 
     BECMG 2021/2023 VRB02KT
       
TAF HLKF 201100Z 2012/2112 20010KT CAVOK 
     BECMG 2018/2020 VRB02KT